Time;durP1;ratioP1;P1;durP2;ratioP2;P2;SDS_P1;SDS_P2;PMS_P1;PMS_P2;Temp;Humidity;BMP_temperature;BMP_pressure;BME280_temperature;BME280_humidity;BME280_pressure;Samples;Min_cycle;Max_cycle;Signal;HPM_P1;HPM_P2
2022/03/17 00:00:55;;;;;;;0.32;0.20;;;9.30;99.90;;;;;;5098249;28;20032;-84
2022/03/17 00:03:22;;;;;;;0.10;0.10;;;9.30;99.90;;;;;;5114842;28;20042;-87
2022/03/17 00:05:49;;;;;;;0.20;0.20;;;9.40;99.90;;;;;;5098189;28;20039;-84
2022/03/17 00:08:16;;;;;;;0.05;0.05;;;9.30;99.90;;;;;;5098491;28;20044;-84
2022/03/17 00:10:43;;;;;;;0.10;0.10;;;9.30;99.90;;;;;;5114258;28;20055;-87
2022/03/17 00:13:11;;;;;;;0.10;0.10;;;9.30;99.90;;;;;;5098085;28;20046;-87
2022/03/17 00:15:40;;;;;;;0.00;0.00;;;9.20;99.90;;;;;;5114424;28;20115;-88
2022/03/17 00:18:07;;;;;;;0.10;0.10;;;9.30;99.90;;;;;;5118034;27;20132;-86
2022/03/17 00:20:34;;;;;;;0.20;0.20;;;9.20;99.90;;;;;;5113307;28;20032;-90
2022/03/17 00:23:01;;;;;;;0.43;0.30;;;9.20;99.90;;;;;;5095333;28;20503;-88
2022/03/17 00:25:29;;;;;;;0.05;0.05;;;9.20;99.90;;;;;;5132942;27;20038;-85
2022/03/17 00:27:57;;;;;;;0.10;0.10;;;9.10;99.90;;;;;;5118865;27;20042;-85
2022/03/17 00:30:24;;;;;;;0.10;0.10;;;9.10;99.90;;;;;;5135153;27;20043;-88
2022/03/17 00:32:51;;;;;;;0.10;0.10;;;9.10;99.90;;;;;;5101367;27;20038;-88
2022/03/17 00:35:36;;;;;;;0.10;0.10;;;9.10;99.90;;;;;;5109663;28;20122;-89
2022/03/17 00:38:04;;;;;;;0.10;0.10;;;9.10;99.90;;;;;;5086092;28;20059;-89
2022/03/17 00:40:31;;;;;;;0.10;0.10;;;9.10;99.90;;;;;;5128664;27;20038;-88
2022/03/17 00:42:59;;;;;;;0.10;0.10;;;9.00;99.90;;;;;;5118236;27;20031;-89
2022/03/17 00:45:26;;;;;;;0.10;0.10;;;9.00;99.90;;;;;;5135457;27;20039;-89
2022/03/17 00:47:52;;;;;;;0.25;0.25;;;9.00;99.90;;;;;;5101901;27;20054;-88
2022/03/17 00:50:19;;;;;;;0.10;0.10;;;9.00;99.90;;;;;;5101864;27;20514;-88
2022/03/17 00:52:46;;;;;;;0.28;0.28;;;9.00;99.90;;;;;;5084115;28;20046;-87
2022/03/17 00:55:14;;;;;;;0.10;0.10;;;9.00;99.90;;;;;;5113777;28;20112;-88
2022/03/17 00:57:41;;;;;;;0.10;0.10;;;9.00;99.90;;;;;;5084655;28;20073;-88
2022/03/17 01:00:14;;;;;;;0.10;0.10;;;9.00;99.90;;;;;;5096185;28;20463;-86
2022/03/17 01:02:45;;;;;;;0.13;0.13;;;8.90;99.90;;;;;;5113961;28;20039;-88
2022/03/17 01:05:13;;;;;;;0.15;0.15;;;8.90;99.90;;;;;;5114227;28;20031;-88
2022/03/17 01:07:40;;;;;;;0.20;0.20;;;8.90;99.90;;;;;;5131325;28;20141;-86
2022/03/17 01:10:09;;;;;;;0.10;0.10;;;8.90;99.90;;;;;;5097012;28;20047;-87
2022/03/17 01:12:36;;;;;;;0.17;0.17;;;8.90;99.90;;;;;;5114035;28;20075;-86
2022/03/17 01:15:04;;;;;;;0.10;0.10;;;9.00;99.90;;;;;;5080567;28;20075;-88
2022/03/17 01:17:31;;;;;;;0.10;0.10;;;8.90;99.90;;;;;;5097719;28;20082;-88
2022/03/17 01:19:58;;;;;;;0.25;0.25;;;8.90;99.90;;;;;;5097529;28;20032;-86
2022/03/17 01:22:24;;;;;;;0.10;0.10;;;8.90;99.90;;;;;;5080987;28;20488;-86
2022/03/17 01:24:51;;;;;;;0.13;0.13;;;8.90;99.90;;;;;;5097193;28;20032;-87
2022/03/17 01:27:20;;;;;;;0.20;0.20;;;8.80;99.90;;;;;;5113794;28;20046;-86
2022/03/17 01:29:47;;;;;;;0.10;0.10;;;8.90;99.90;;;;;;5097203;28;20046;-86
2022/03/17 01:32:14;;;;;;;0.05;0.05;;;8.80;99.90;;;;;;5097246;28;20043;-88
2022/03/17 01:34:41;;;;;;;0.10;0.10;;;8.90;99.90;;;;;;5114270;28;20534;-85
2022/03/17 01:37:08;;;;;;;0.10;0.10;;;8.90;99.90;;;;;;5096516;28;20516;-86
2022/03/17 01:39:35;;;;;;;0.10;0.10;;;8.90;99.90;;;;;;5097067;28;20048;-86
2022/03/17 01:42:04;;;;;;;0.20;0.20;;;8.90;99.90;;;;;;5080372;28;20071;-85
2022/03/17 01:44:32;;;;;;;0.10;0.10;;;8.90;99.90;;;;;;5113688;28;20043;-87
2022/03/17 01:49:44;;;;;;;;;;;8.90;99.90;;;;;;5117313;28;20051;-88
2022/03/17 01:52:12;;;;;;;0.10;0.10;;;8.90;99.90;;;;;;5113080;28;19919;-86
2022/03/17 01:54:40;;;;;;;0.10;0.10;;;8.90;99.90;;;;;;5113623;28;20063;-88
2022/03/17 01:57:09;;;;;;;0.10;0.10;;;8.80;99.90;;;;;;5096660;28;20044;-88
2022/03/17 01:59:37;;;;;;;0.10;0.10;;;8.90;99.90;;;;;;5114174;28;20044;-88
2022/03/17 02:02:06;;;;;;;0.08;0.08;;;8.90;99.90;;;;;;5130398;28;20039;-88
2022/03/17 02:04:33;;;;;;;0.10;0.10;;;8.90;99.90;;;;;;5130720;28;20032;-88
2022/03/17 02:07:00;;;;;;;0.17;0.13;;;8.70;99.90;;;;;;5080590;28;20039;-86
2022/03/17 02:09:26;;;;;;;0.10;0.10;;;8.80;99.90;;;;;;5097062;28;20395;-88
2022/03/17 02:14:55;;;;;;;0.10;0.10;;;8.80;99.90;;;;;;5116349;28;20043;-88
2022/03/17 02:17:22;;;;;;;0.10;0.10;;;8.90;99.90;;;;;;5114259;28;20039;-88
2022/03/17 02:19:50;;;;;;;0.03;0.03;;;8.90;99.90;;;;;;5097209;28;20489;-88
2022/03/17 02:22:19;;;;;;;0.30;0.30;;;8.90;99.90;;;;;;5096662;28;20088;-88
2022/03/17 02:27:36;;;;;;;;;;;9.00;99.90;;;;;;5130997;28;20510;-85
2022/03/17 02:30:03;;;;;;;0.08;0.08;;;8.90;99.90;;;;;;5114292;28;19916;-86
2022/03/17 02:32:30;;;;;;;0.28;0.28;;;9.00;99.90;;;;;;5080351;28;20048;-85
2022/03/17 02:34:57;;;;;;;0.10;0.10;;;9.00;99.90;;;;;;5096686;28;20407;-88
2022/03/17 02:37:24;;;;;;;0.10;0.10;;;9.00;99.90;;;;;;5096149;28;20503;-88
2022/03/17 02:39:50;;;;;;;0.10;0.10;;;9.10;99.90;;;;;;5080541;28;20036;-88
2022/03/17 02:42:18;;;;;;;0.10;0.10;;;9.10;99.90;;;;;;5080046;28;20553;-86
2022/03/17 02:44:47;;;;;;;0.10;0.10;;;9.10;99.90;;;;;;5081687;28;20392;-86
2022/03/17 02:47:13;;;;;;;0.10;0.10;;;9.10;99.90;;;;;;5100438;28;20051;-86
2022/03/17 02:49:40;;;;;;;0.10;0.10;;;9.10;99.90;;;;;;5100565;28;20032;-85
2022/03/17 02:52:07;;;;;;;0.00;0.00;;;9.20;99.90;;;;;;5116539;28;20548;-86
2022/03/17 02:54:34;;;;;;;0.08;0.08;;;9.20;99.90;;;;;;5083894;28;20036;-88
2022/03/17 02:57:01;;;;;;;0.10;0.10;;;9.20;99.90;;;;;;5083647;28;20569;-85
2022/03/17 02:59:30;;;;;;;0.10;0.10;;;9.20;99.90;;;;;;5083325;28;20491;-86
2022/03/17 03:01:57;;;;;;;0.10;0.10;;;9.20;99.90;;;;;;5084210;28;20043;-85
2022/03/17 03:04:23;;;;;;;0.00;0.00;;;9.20;99.90;;;;;;5082975;28;20122;-86
2022/03/17 03:06:50;;;;;;;0.00;0.00;;;9.20;99.90;;;;;;5083567;28;20039;-88
2022/03/17 03:09:17;;;;;;;0.10;0.10;;;9.20;99.90;;;;;;5083303;28;20047;-86
2022/03/17 03:11:43;;;;;;;0.20;0.20;;;9.30;99.90;;;;;;5082913;28;20051;-88
2022/03/17 03:14:10;;;;;;;0.10;0.10;;;9.30;99.90;;;;;;5099363;28;20043;-87
2022/03/17 03:16:37;;;;;;;0.05;0.05;;;9.30;99.90;;;;;;5083272;28;20070;-88
2022/03/17 03:19:04;;;;;;;0.10;0.10;;;9.30;99.90;;;;;;5083075;28;20079;-88
2022/03/17 03:21:30;;;;;;;0.10;0.10;;;9.30;99.90;;;;;;5099713;28;20036;-86
2022/03/17 03:23:57;;;;;;;0.40;0.40;;;9.30;99.90;;;;;;5082965;28;20066;-86
2022/03/17 03:26:26;;;;;;;0.10;0.10;;;9.30;99.90;;;;;;5099838;28;20064;-87
2022/03/17 03:28:54;;;;;;;0.10;0.10;;;9.30;99.90;;;;;;5083360;28;20126;-87
2022/03/17 03:31:22;;;;;;;0.10;0.10;;;9.30;99.90;;;;;;5099109;28;20039;-87
2022/03/17 03:33:50;;;;;;;0.15;0.15;;;9.30;99.90;;;;;;5116844;28;20046;-84
2022/03/17 03:39:02;;;;;;;0.10;0.10;;;9.20;99.90;;;;;;5104151;28;20052;-84
2022/03/17 03:41:28;;;;;;;0.45;0.40;;;9.20;99.90;;;;;;5099148;28;20031;-89
2022/03/17 03:43:55;;;;;;;0.10;0.10;;;9.30;99.90;;;;;;5082804;28;20467;-85
2022/03/17 03:46:22;;;;;;;0.10;0.10;;;9.20;99.90;;;;;;5082292;28;20042;-84
2022/03/17 03:48:48;;;;;;;0.10;0.10;;;9.30;99.90;;;;;;5082427;28;20047;-85
2022/03/17 03:51:15;;;;;;;0.03;0.03;;;9.30;99.90;;;;;;5115645;28;20044;-87
2022/03/17 03:56:47;;;;;;;0.10;0.10;;;9.30;99.90;;;;;;5097059;28;20130;-87
2022/03/17 03:59:21;;;;;;;0.10;0.10;;;9.20;99.90;;;;;;5115575;28;20051;-88
2022/03/17 04:01:49;;;;;;;0.10;0.10;;;9.30;99.90;;;;;;5099883;28;20039;-84
2022/03/17 04:04:20;;;;;;;0.00;0.00;;;9.30;99.90;;;;;;5098943;28;20127;-85
2022/03/17 04:06:54;;;;;;;0.00;0.00;;;9.30;99.90;;;;;;5099525;28;20089;-86
2022/03/17 04:09:25;;;;;;;0.08;0.08;;;9.20;99.90;;;;;;5132352;28;20124;-85
2022/03/17 04:11:52;;;;;;;0.10;0.10;;;9.20;99.90;;;;;;5115171;28;20122;-87
2022/03/17 04:14:20;;;;;;;0.00;0.00;;;9.20;99.90;;;;;;5115158;28;20131;-87
2022/03/17 04:16:47;;;;;;;0.00;0.00;;;9.20;99.90;;;;;;5098595;28;20039;-86
2022/03/17 04:19:17;;;;;;;0.00;0.00;;;9.20;99.90;;;;;;5115005;28;20411;-87
2022/03/17 04:21:45;;;;;;;0.00;0.00;;;9.20;99.90;;;;;;5115155;28;20126;-87
2022/03/17 04:24:13;;;;;;;0.10;0.10;;;9.20;99.90;;;;;;5098527;28;20050;-87
2022/03/17 04:26:40;;;;;;;0.28;0.28;;;9.30;99.90;;;;;;5114685;28;20518;-87
2022/03/17 04:29:09;;;;;;;0.15;0.15;;;9.20;99.90;;;;;;5081833;28;20045;-87
2022/03/17 04:31:38;;;;;;;0.10;0.10;;;9.50;99.90;;;;;;5115237;28;20059;-86
2022/03/17 04:34:05;;;;;;;0.10;0.10;;;9.20;99.90;;;;;;5114954;28;20036;-85
2022/03/17 04:36:32;;;;;;;0.20;0.20;;;9.30;99.90;;;;;;5097792;28;20043;-87
2022/03/17 04:39:00;;;;;;;0.10;0.10;;;9.30;99.90;;;;;;5097923;28;20048;-87
2022/03/17 04:41:27;;;;;;;0.32;0.10;;;9.30;99.90;;;;;;5114601;28;20154;-87
2022/03/17 04:43:54;;;;;;;0.10;0.10;;;9.30;99.90;;;;;;5115214;28;20093;-87
2022/03/17 04:46:22;;;;;;;0.35;0.35;;;9.30;99.90;;;;;;5098033;28;20042;-85
2022/03/17 04:48:48;;;;;;;0.00;0.00;;;9.40;99.90;;;;;;5114511;28;20085;-85
2022/03/17 04:51:15;;;;;;;0.10;0.10;;;9.40;99.90;;;;;;5098502;28;20039;-86
2022/03/17 04:53:42;;;;;;;0.10;0.10;;;9.40;99.90;;;;;;5098003;28;20392;-85
2022/03/17 04:56:11;;;;;;;0.00;0.00;;;9.40;99.90;;;;;;5097868;28;20153;-84
2022/03/17 04:58:40;;;;;;;0.10;0.10;;;9.40;99.90;;;;;;5114512;28;20082;-84
2022/03/17 05:01:08;;;;;;;0.20;0.20;;;9.40;99.90;;;;;;5114341;28;20123;-84
2022/03/17 05:03:35;;;;;;;0.00;0.00;;;9.50;99.90;;;;;;5097991;28;20036;-85
2022/03/17 05:06:05;;;;;;;0.00;0.00;;;9.40;99.90;;;;;;5098747;28;20496;-87
2022/03/17 05:08:35;;;;;;;0.10;0.10;;;9.50;99.90;;;;;;5097175;28;20126;-88
2022/03/17 05:11:03;;;;;;;0.52;0.30;;;9.50;99.90;;;;;;5114490;28;20500;-85
2022/03/17 05:13:30;;;;;;;0.10;0.10;;;9.50;99.90;;;;;;5114235;28;20046;-87
2022/03/17 05:15:58;;;;;;;0.10;0.10;;;9.50;99.90;;;;;;5131694;28;20055;-87
2022/03/17 05:18:25;;;;;;;0.10;0.10;;;9.50;99.90;;;;;;5097321;28;20039;-85
2022/03/17 05:20:52;;;;;;;0.10;0.10;;;9.50;99.90;;;;;;5113639;28;20044;-87
2022/03/17 05:23:20;;;;;;;0.10;0.10;;;9.40;99.90;;;;;;5081298;28;20032;-85
2022/03/17 05:25:48;;;;;;;0.00;0.00;;;9.40;99.90;;;;;;5113846;28;20035;-84
2022/03/17 05:28:16;;;;;;;0.10;0.10;;;9.30;99.90;;;;;;5097211;28;20043;-86
2022/03/17 05:30:44;;;;;;;0.08;0.08;;;9.20;99.90;;;;;;5096569;28;20492;-83
2022/03/17 05:33:12;;;;;;;0.10;0.10;;;9.10;99.90;;;;;;5097480;28;20104;-86
2022/03/17 05:35:40;;;;;;;0.10;0.10;;;9.10;99.90;;;;;;5080487;28;20043;-85
2022/03/17 05:38:07;;;;;;;0.10;0.10;;;9.00;99.90;;;;;;5130354;28;20056;-86
2022/03/17 05:40:34;;;;;;;0.10;0.10;;;8.90;99.90;;;;;;5113556;28;20417;-83
2022/03/17 05:43:03;;;;;;;0.10;0.10;;;8.90;99.90;;;;;;5113080;28;20054;-86
2022/03/17 05:45:30;;;;;;;0.00;0.00;;;8.90;99.90;;;;;;5113241;28;20499;-83
2022/03/17 05:47:59;;;;;;;0.10;0.10;;;8.80;99.90;;;;;;5096709;28;20154;-83
2022/03/17 05:50:30;;;;;;;0.10;0.10;;;8.80;99.90;;;;;;5113737;28;20055;-86
2022/03/17 05:52:56;;;;;;;0.10;0.10;;;8.80;99.90;;;;;;5113610;28;20074;-86
2022/03/17 05:55:25;;;;;;;0.08;0.08;;;8.70;99.90;;;;;;5103756;28;20491;-83
2022/03/17 05:57:54;;;;;;;0.10;0.10;;;8.70;99.90;;;;;;5126177;28;20544;-83
2022/03/17 06:00:23;;;;;;;0.05;0.05;;;8.70;99.90;;;;;;5124595;28;20036;-86
2022/03/17 06:02:51;;;;;;;0.28;0.22;;;8.70;99.90;;;;;;5119736;28;20058;-86
2022/03/17 06:05:18;;;;;;;0.10;0.10;;;8.70;99.90;;;;;;5105561;28;20472;-83
2022/03/17 06:07:50;;;;;;;0.10;0.10;;;8.70;99.90;;;;;;5106994;28;20177;-86
2022/03/17 06:10:21;;;;;;;0.10;0.10;;;8.70;99.90;;;;;;5122450;28;20101;-85
2022/03/17 06:12:51;;;;;;;0.00;0.00;;;8.60;99.90;;;;;;5113103;28;20035;-83
2022/03/17 06:15:23;;;;;;;0.10;0.10;;;8.50;99.90;;;;;;5106990;28;20050;-85
2022/03/17 06:17:53;;;;;;;0.10;0.10;;;8.40;99.90;;;;;;5114776;28;20180;-86
2022/03/17 06:20:22;;;;;;;0.10;0.10;;;8.30;99.90;;;;;;5114845;28;20480;-83
2022/03/17 06:22:52;;;;;;;0.00;0.00;;;8.20;99.90;;;;;;5133310;28;20054;-83
2022/03/17 06:25:21;;;;;;;0.10;0.10;;;8.10;99.90;;;;;;5130977;27;20038;-86
2022/03/17 06:27:49;;;;;;;0.10;0.10;;;8.10;99.90;;;;;;5136784;27;20043;-86
2022/03/17 06:30:20;;;;;;;0.00;0.00;;;8.00;99.90;;;;;;5120588;27;20046;-83
2022/03/17 06:32:47;;;;;;;0.10;0.10;;;8.00;99.90;;;;;;5115533;27;20035;-86
2022/03/17 06:35:20;;;;;;;0.10;0.10;;;7.90;99.90;;;;;;5107933;28;20048;-83
2022/03/17 06:37:49;;;;;;;0.52;0.20;;;7.90;99.90;;;;;;5098081;28;20083;-83
2022/03/17 06:40:17;;;;;;;0.10;0.10;;;7.90;99.90;;;;;;5111335;27;20047;-87
2022/03/17 06:42:45;;;;;;;0.10;0.10;;;7.80;99.90;;;;;;5083313;28;20377;-83
2022/03/17 06:45:12;;;;;;;0.10;0.10;;;7.80;99.90;;;;;;5128606;27;20384;-83
2022/03/17 06:47:40;;;;;;;0.10;0.10;;;7.90;99.90;;;;;;5136859;27;20039;-84
2022/03/17 06:50:08;;;;;;;0.10;0.10;;;7.80;99.90;;;;;;5120750;27;20081;-86
2022/03/17 06:52:34;;;;;;;0.10;0.10;;;7.80;99.90;;;;;;5137015;27;20039;-84
2022/03/17 06:55:02;;;;;;;0.08;0.08;;;7.90;99.90;;;;;;5136929;27;20088;-82
2022/03/17 06:57:29;;;;;;;0.00;0.00;;;7.80;99.90;;;;;;5136437;27;20034;-83
2022/03/17 06:59:56;;;;;;;0.10;0.10;;;7.80;99.90;;;;;;5102954;27;20046;-83
2022/03/17 07:02:22;;;;;;;0.10;0.10;;;7.80;99.90;;;;;;5120684;27;20039;-86
2022/03/17 07:04:49;;;;;;;0.10;0.10;;;7.80;99.90;;;;;;5090973;28;20039;-86
2022/03/17 07:07:16;;;;;;;0.10;0.10;;;7.80;99.90;;;;;;5093722;28;20039;-86
2022/03/17 07:09:42;;;;;;;0.10;0.10;;;7.80;99.90;;;;;;5085158;27;20063;-84
2022/03/17 07:12:11;;;;;;;0.10;0.10;;;7.70;99.90;;;;;;5137197;27;20036;-84
2022/03/17 07:14:39;;;;;;;0.10;0.10;;;7.70;99.90;;;;;;5121925;27;20031;-84
2022/03/17 07:17:06;;;;;;;0.10;0.10;;;7.80;99.90;;;;;;5136091;27;20065;-86
2022/03/17 07:19:33;;;;;;;0.10;0.10;;;7.70;99.90;;;;;;5097831;28;20036;-86
2022/03/17 07:21:59;;;;;;;0.20;0.20;;;7.70;99.90;;;;;;5078872;28;20036;-83
2022/03/17 07:24:26;;;;;;;0.10;0.10;;;7.70;99.90;;;;;;5062419;28;20499;-83
2022/03/17 07:26:53;;;;;;;0.10;0.10;;;7.60;99.90;;;;;;5062533;28;20075;-83
2022/03/17 07:29:20;;;;;;;0.10;0.10;;;7.70;99.90;;;;;;5063338;28;20044;-86
2022/03/17 07:31:47;;;;;;;0.10;0.10;;;7.60;99.90;;;;;;5078916;28;20130;-84
2022/03/17 07:34:13;;;;;;;0.10;0.10;;;7.60;99.90;;;;;;5062524;28;20408;-84
2022/03/17 07:36:40;;;;;;;0.10;0.10;;;7.90;99.90;;;;;;5106786;27;20042;-86
2022/03/17 07:39:07;;;;;;;0.10;0.10;;;7.50;99.90;;;;;;5091127;27;20039;-87
2022/03/17 07:41:34;;;;;;;0.10;0.10;;;7.50;99.90;;;;;;5083145;28;20415;-87
2022/03/17 07:44:02;;;;;;;0.10;0.10;;;7.50;99.90;;;;;;5110621;27;20091;-86
2022/03/17 07:46:28;;;;;;;0.10;0.10;;;7.60;99.90;;;;;;5082887;28;20039;-84
2022/03/17 07:48:55;;;;;;;0.10;0.10;;;7.60;99.90;;;;;;5098456;28;20047;-86
2022/03/17 07:51:22;;;;;;;0.10;0.10;;;7.70;99.90;;;;;;5096524;27;20035;-86
2022/03/17 07:53:48;;;;;;;0.10;0.10;;;7.70;99.90;;;;;;5106606;27;20039;-86
2022/03/17 07:56:18;;;;;;;0.10;0.10;;;7.80;99.90;;;;;;5083089;28;20035;-84
2022/03/17 07:58:45;;;;;;;0.10;0.10;;;7.80;99.90;;;;;;5139903;28;20035;-84
2022/03/17 08:01:12;;;;;;;0.10;0.10;;;7.80;99.90;;;;;;5121215;28;20040;-84
2022/03/17 08:03:40;;;;;;;0.10;0.10;;;7.80;99.90;;;;;;5095905;27;20039;-86
2022/03/17 08:06:07;;;;;;;0.10;0.10;;;7.90;99.90;;;;;;5102451;27;20039;-85
2022/03/17 08:08:34;;;;;;;0.10;0.10;;;7.80;99.90;;;;;;5102155;27;20111;-85
2022/03/17 08:11:01;;;;;;;0.10;0.10;;;7.70;99.90;;;;;;5118570;27;20047;-85
2022/03/17 08:13:28;;;;;;;0.10;0.10;;;7.90;99.90;;;;;;5118883;27;20035;-84
2022/03/17 08:15:55;;;;;;;0.20;0.20;;;7.50;99.90;;;;;;5126451;28;20445;-84
2022/03/17 08:18:22;;;;;;;0.10;0.10;;;7.60;99.90;;;;;;5098909;28;20131;-83
2022/03/17 08:20:49;;;;;;;0.10;0.10;;;7.60;99.90;;;;;;5098273;28;20038;-83
2022/03/17 08:23:19;;;;;;;0.10;0.10;;;7.60;99.90;;;;;;5103487;27;20039;-84
2022/03/17 08:25:46;;;;;;;0.10;0.10;;;7.60;99.90;;;;;;5082088;28;20504;-86
2022/03/17 08:28:13;;;;;;;0.10;0.10;;;7.60;99.90;;;;;;5098818;27;20129;-86
2022/03/17 08:30:39;;;;;;;0.10;0.10;;;7.50;99.90;;;;;;5102773;28;20047;-85
2022/03/17 08:33:06;;;;;;;0.10;0.10;;;7.50;99.90;;;;;;5114332;28;20043;-84
2022/03/17 08:35:33;;;;;;;0.10;0.10;;;7.50;99.90;;;;;;5081602;28;20043;-84
2022/03/17 08:37:59;;;;;;;0.10;0.10;;;7.50;99.90;;;;;;5119179;27;20050;-85
2022/03/17 08:40:26;;;;;;;0.10;0.10;;;7.50;99.90;;;;;;5086261;27;20122;-85
2022/03/17 08:42:53;;;;;;;0.10;0.10;;;7.40;99.90;;;;;;5084241;28;20039;-85
2022/03/17 08:50:50;;;;;;;0.10;0.10;;;7.50;99.90;;;;;;5121129;27;20047;-86
2022/03/17 08:53:17;;;;;;;0.10;0.10;;;7.50;99.90;;;;;;5093976;28;20138;-86
2022/03/17 08:55:44;;;;;;;0.10;0.10;;;7.50;99.90;;;;;;5097145;28;20043;-84
2022/03/17 08:58:12;;;;;;;0.10;0.10;;;7.60;99.90;;;;;;5133831;27;20050;-85
2022/03/17 09:00:40;;;;;;;0.10;0.10;;;7.50;99.90;;;;;;5111904;28;20032;-83
2022/03/17 09:03:07;;;;;;;0.10;0.10;;;7.60;99.90;;;;;;5098517;27;20514;-85
2022/03/17 09:05:35;;;;;;;0.10;0.10;;;7.60;99.90;;;;;;5125959;27;20125;-86
2022/03/17 09:08:06;;;;;;;0.10;0.10;;;7.60;99.90;;;;;;5100975;27;20043;-87
2022/03/17 09:10:38;;;;;;;0.10;0.10;;;7.60;99.90;;;;;;5106176;28;20096;-88
2022/03/17 09:13:08;;;;;;;0.10;0.10;;;7.60;99.90;;;;;;5096314;28;20496;-86
2022/03/17 09:15:37;;;;;;;0.10;0.10;;;7.60;99.90;;;;;;5094570;27;20100;-88
2022/03/17 09:18:08;;;;;;;0.10;0.10;;;7.50;99.90;;;;;;5108950;27;20044;-88
2022/03/17 09:20:36;;;;;;;0.10;0.10;;;7.60;99.90;;;;;;5151912;27;20046;-89
2022/03/17 09:23:03;;;;;;;0.10;0.10;;;7.60;99.90;;;;;;5134342;27;20035;-87
2022/03/17 09:25:31;;;;;;;0.10;0.10;;;7.60;99.90;;;;;;5134772;27;20039;-89
2022/03/17 09:27:58;;;;;;;0.20;0.20;;;7.50;99.90;;;;;;5117276;27;20507;-90
2022/03/17 09:30:25;;;;;;;0.10;0.10;;;7.60;99.90;;;;;;5118201;27;20039;-90
2022/03/17 09:32:52;;;;;;;0.10;0.10;;;7.60;99.90;;;;;;5117580;27;20042;-87
2022/03/17 09:35:20;;;;;;;0.10;0.10;;;7.50;99.90;;;;;;5117724;28;20050;-88
2022/03/17 09:37:46;;;;;;;0.10;0.10;;;7.60;99.90;;;;;;5119316;28;20077;-87
2022/03/17 09:40:13;;;;;;;0.10;0.10;;;7.50;99.90;;;;;;5107392;28;20039;-88
2022/03/17 09:42:40;;;;;;;0.10;0.10;;;7.50;99.90;;;;;;5133843;28;20031;-89
2022/03/17 09:45:09;;;;;;;0.10;0.10;;;8.20;99.90;;;;;;5116880;28;20039;-87
2022/03/17 09:47:38;;;;;;;0.25;0.25;;;7.60;99.90;;;;;;5101328;28;20087;-88
2022/03/17 09:50:07;;;;;;;0.10;0.10;;;7.70;99.90;;;;;;5133812;28;20053;-88
2022/03/17 09:52:39;;;;;;;0.10;0.10;;;7.80;99.90;;;;;;5101344;28;20050;-86
2022/03/17 09:55:09;;;;;;;0.10;0.10;;;7.90;99.90;;;;;;5118581;27;20035;-86
2022/03/17 09:57:40;;;;;;;0.10;0.10;;;7.90;99.90;;;;;;5119835;27;20042;-86
2022/03/17 10:00:11;;;;;;;0.10;0.10;;;7.90;99.90;;;;;;5120253;27;20031;-85
2022/03/17 10:02:38;;;;;;;0.10;0.10;;;7.90;99.90;;;;;;5138073;27;20039;-88
2022/03/17 10:05:06;;;;;;;0.10;0.10;;;7.80;99.90;;;;;;5119997;27;20032;-86
2022/03/17 10:07:35;;;;;;;0.10;0.10;;;7.80;99.90;;;;;;5120472;27;20043;-85
2022/03/17 10:10:02;;;;;;;0.10;0.10;;;7.80;99.90;;;;;;5136373;27;20488;-86
2022/03/17 10:12:31;;;;;;;0.10;0.10;;;7.80;99.90;;;;;;5120549;27;20035;-85
2022/03/17 10:14:58;;;;;;;0.10;0.10;;;7.80;99.90;;;;;;5120783;27;20039;-86
2022/03/17 10:17:41;;;;;;;0.10;0.10;;;7.70;99.90;;;;;;5120768;27;20058;-86
2022/03/17 10:20:17;;;;;;;0.10;0.10;;;7.70;99.90;;;;;;5120660;27;20125;-85
2022/03/17 10:22:48;;;;;;;;;;;7.70;99.90;;;;;;5137621;27;20053;-85
2022/03/17 10:25:20;;;;;;;0.10;0.10;;;7.70;99.90;;;;;;5116978;28;19926;-85
2022/03/17 10:27:54;;;;;;;0.10;0.10;;;7.90;99.90;;;;;;5133671;28;20054;-87
2022/03/17 10:30:33;;;;;;;0.10;0.10;;;8.00;99.90;;;;;;5100970;28;20515;-86
2022/03/17 10:33:01;;;;;;;0.10;0.10;;;8.10;99.90;;;;;;5120707;27;20114;-86
2022/03/17 10:35:36;;;;;;;0.10;0.10;;;8.30;99.90;;;;;;5137019;27;20200;-85
2022/03/17 10:38:39;;;;;;;0.10;0.10;;;8.40;99.90;;;;;;5112537;28;20105;-86
2022/03/17 10:41:12;;;;;;;0.10;0.10;;;8.50;99.90;;;;;;5129391;28;20044;-86
2022/03/17 10:43:42;;;;;;;0.10;0.10;;;8.60;99.90;;;;;;5082134;28;20055;-87
2022/03/17 10:46:09;;;;;;;0.10;0.10;;;8.80;99.90;;;;;;5131311;28;20028;-86
2022/03/17 10:48:59;;;;;;;0.10;0.10;;;8.90;99.90;;;;;;5150229;28;20043;-86
2022/03/17 10:51:36;;;;;;;0.55;0.47;;;8.90;99.90;;;;;;5130257;28;20035;-87
2022/03/17 10:54:06;;;;;;;0.10;0.10;;;8.90;99.90;;;;;;5130819;28;20506;-87
2022/03/17 10:56:35;;;;;;;0.10;0.10;;;8.90;99.90;;;;;;5132606;28;20042;-85
2022/03/17 10:59:03;;;;;;;0.25;0.25;;;8.90;99.90;;;;;;5131885;28;20044;-85
2022/03/17 11:01:36;;;;;;;0.10;0.10;;;9.00;99.90;;;;;;5100339;28;20078;-85
2022/03/17 11:04:04;;;;;;;0.10;0.10;;;9.00;99.90;;;;;;5132713;28;20047;-84
2022/03/17 11:06:32;;;;;;;0.10;0.10;;;9.00;99.90;;;;;;5135873;28;20043;-87
2022/03/17 11:09:01;;;;;;;0.10;0.10;;;9.10;99.90;;;;;;5134619;27;20039;-87
2022/03/17 11:11:29;;;;;;;0.10;0.10;;;9.20;99.90;;;;;;5113016;28;20110;-87
2022/03/17 11:13:57;;;;;;;0.10;0.10;;;9.30;99.90;;;;;;5107693;28;20037;-88
2022/03/17 11:16:43;;;;;;;0.10;0.10;;;9.50;99.90;;;;;;5143239;27;20043;-88
2022/03/17 11:19:12;;;;;;;0.10;0.10;;;9.60;99.90;;;;;;5146811;28;20036;-87
2022/03/17 11:21:45;;;;;;;0.10;0.10;;;9.50;99.90;;;;;;5127292;28;20036;-87
2022/03/17 11:24:22;;;;;;;0.00;0.00;;;9.40;99.90;;;;;;5108403;28;20768;-87
2022/03/17 11:26:50;;;;;;;0.10;0.10;;;9.60;99.90;;;;;;5113023;28;20036;-87
2022/03/17 11:29:18;;;;;;;0.00;0.00;;;9.80;99.90;;;;;;5132441;28;20118;-87
2022/03/17 11:31:55;;;;;;;0.10;0.10;;;9.80;99.90;;;;;;5148601;28;20036;-87
2022/03/17 11:34:42;;;;;;;0.00;0.00;;;10.10;99.90;;;;;;5164241;27;20043;-87
2022/03/17 11:37:28;;;;;;;0.10;0.10;;;10.20;99.90;;;;;;5137275;28;20036;-88
2022/03/17 11:40:08;;;;;;;0.10;0.10;;;10.00;99.90;;;;;;5111449;28;20135;-88
2022/03/17 11:42:41;;;;;;;0.00;0.00;;;9.90;99.90;;;;;;5129102;28;20127;-88
2022/03/17 11:45:15;;;;;;;0.10;0.10;;;9.90;99.90;;;;;;5131568;28;20031;-88
2022/03/17 11:47:47;;;;;;;0.10;0.10;;;9.90;99.90;;;;;;5131877;28;20130;-88
2022/03/17 11:50:40;;;;;;;0.08;0.08;;;9.90;99.90;;;;;;5114842;28;20523;-87
2022/03/17 11:53:12;;;;;;;0.10;0.10;;;9.90;99.90;;;;;;5115411;28;20061;-87
2022/03/17 11:55:42;;;;;;;0.10;0.10;;;9.90;99.90;;;;;;5115264;28;20044;-88
2022/03/17 11:58:29;;;;;;;0.10;0.10;;;9.90;99.90;;;;;;5122600;28;20488;-88
2022/03/17 12:01:01;;;;;;;0.10;0.10;;;9.70;99.90;;;;;;5115434;28;20081;-88
2022/03/17 12:03:39;;;;;;;0.10;0.10;;;9.70;99.90;;;;;;5115463;28;20492;-88
2022/03/17 12:06:16;;;;;;;0.10;0.10;;;9.70;99.90;;;;;;5131768;28;20177;-88
2022/03/17 12:08:51;;;;;;;0.08;0.08;;;9.90;99.90;;;;;;5123712;28;20043;-88
2022/03/17 12:11:22;;;;;;;0.00;0.00;;;10.10;99.90;;;;;;5110910;28;20040;-85
2022/03/17 12:14:13;;;;;;;0.10;0.10;;;10.10;99.90;;;;;;5111492;28;20082;-87
2022/03/17 12:16:53;;;;;;;0.10;0.10;;;10.20;99.90;;;;;;5111022;28;20056;-89
2022/03/17 12:19:32;;;;;;;0.10;0.10;;;10.20;99.90;;;;;;5111101;28;20063;-87
2022/03/17 12:22:02;;;;;;;0.10;0.10;;;10.10;99.90;;;;;;5119124;28;20035;-88
2022/03/17 12:24:59;;;;;;;0.10;0.10;;;10.10;99.90;;;;;;5131435;28;20035;-88
2022/03/17 12:27:29;;;;;;;0.10;0.10;;;10.20;99.90;;;;;;5141897;28;20050;-87
2022/03/17 12:30:05;;;;;;;0.10;0.10;;;10.30;99.90;;;;;;5131812;28;20032;-87
2022/03/17 12:32:40;;;;;;;0.00;0.00;;;10.40;99.90;;;;;;5131747;28;20043;-88
2022/03/17 12:35:09;;;;;;;0.10;0.10;;;10.70;99.90;;;;;;5148657;28;20067;-88
2022/03/17 12:37:38;;;;;;;0.10;0.10;;;10.70;99.90;;;;;;5114926;28;20478;-88
2022/03/17 12:40:07;;;;;;;0.10;0.10;;;10.60;99.90;;;;;;5097821;28;20434;-87
2022/03/17 12:42:39;;;;;;;0.00;0.00;;;10.50;99.90;;;;;;5131243;28;20044;-87
2022/03/17 12:45:17;;;;;;;0.03;0.03;;;10.50;99.90;;;;;;5131406;28;20144;-88
2022/03/17 12:47:52;;;;;;;0.00;0.00;;;10.50;99.90;;;;;;5115476;28;20047;-88
2022/03/17 12:50:20;;;;;;;0.00;0.00;;;10.40;99.90;;;;;;5115455;28;20039;-88
2022/03/17 12:52:48;;;;;;;0.10;0.10;;;10.50;99.90;;;;;;5131446;28;20074;-88
2022/03/17 12:55:17;;;;;;;0.00;0.00;;;10.60;99.90;;;;;;5114110;28;20492;-88
2022/03/17 12:57:44;;;;;;;0.00;0.00;;;10.60;99.90;;;;;;5131119;28;20584;-87
2022/03/17 13:00:13;;;;;;;0.10;0.10;;;10.90;99.90;;;;;;5114616;28;20043;-85
2022/03/17 13:02:51;;;;;;;0.00;0.00;;;10.90;99.90;;;;;;5113994;28;20122;-84
2022/03/17 13:08:07;;;;;;;0.00;0.00;;;11.00;99.90;;;;;;5133751;28;20130;-86
2022/03/17 13:16:24;;;;;;;0.10;0.10;;;10.80;99.90;;;;;;5143422;28;20044;-86
2022/03/17 13:18:52;;;;;;;0.00;0.00;;;10.90;99.90;;;;;;5121737;27;20070;-87
2022/03/17 13:21:20;;;;;;;0.00;0.00;;;10.70;99.90;;;;;;5139996;28;20492;-86
2022/03/17 13:23:49;;;;;;;0.10;0.10;;;10.70;99.90;;;;;;5111705;28;20114;-84
2022/03/17 13:26:21;;;;;;;0.00;0.00;;;10.50;99.90;;;;;;5112768;28;20040;-85
2022/03/17 13:29:02;;;;;;;0.00;0.00;;;10.40;99.90;;;;;;5145002;28;20043;-85
2022/03/17 13:31:44;;;;;;;0.05;0.05;;;10.50;99.90;;;;;;5113308;28;20039;-86
2022/03/17 13:34:33;;;;;;;0.00;0.00;;;10.50;99.90;;;;;;5147701;28;20036;-86
2022/03/17 13:37:05;;;;;;;0.10;0.10;;;10.50;99.90;;;;;;5113862;28;20043;-89